sensor_id;sensor_type;location;lat;lon;timestamp;P1;durP1;ratioP1;P2;durP2;ratioP2
25715;SDS011;13573;50.936;4.328;2022-12-18T00:02:04;98.97;;;38.10;;
25715;SDS011;13573;50.936;4.328;2022-12-18T00:04:31;92.43;;;35.43;;
25715;SDS011;13573;50.936;4.328;2022-12-18T00:06:58;92.47;;;36.03;;
25715;SDS011;13573;50.936;4.328;2022-12-18T00:09:24;83.77;;;33.73;;
25715;SDS011;13573;50.936;4.328;2022-12-18T00:11:51;96.30;;;37.90;;
25715;SDS011;13573;50.936;4.328;2022-12-18T00:14:18;81.73;;;34.80;;
25715;SDS011;13573;50.936;4.328;2022-12-18T00:16:45;92.67;;;36.60;;
25715;SDS011;13573;50.936;4.328;2022-12-18T00:19:13;98.30;;;38.50;;
25715;SDS011;13573;50.936;4.328;2022-12-18T00:21:40;92.07;;;38.00;;
25715;SDS011;13573;50.936;4.328;2022-12-18T00:24:08;77.97;;;32.17;;
25715;SDS011;13573;50.936;4.328;2022-12-18T00:26:35;86.17;;;34.50;;
25715;SDS011;13573;50.936;4.328;2022-12-18T00:29:04;98.63;;;40.07;;
25715;SDS011;13573;50.936;4.328;2022-12-18T00:31:32;94.57;;;37.10;;
25715;SDS011;13573;50.936;4.328;2022-12-18T00:33:59;77.90;;;33.60;;
25715;SDS011;13573;50.936;4.328;2022-12-18T00:36:28;81.30;;;32.63;;
25715;SDS011;13573;50.936;4.328;2022-12-18T00:38:57;87.43;;;32.53;;
25715;SDS011;13573;50.936;4.328;2022-12-18T00:41:25;86.40;;;33.50;;
25715;SDS011;13573;50.936;4.328;2022-12-18T00:43:58;84.77;;;32.20;;
25715;SDS011;13573;50.936;4.328;2022-12-18T00:46:24;84.73;;;31.80;;
25715;SDS011;13573;50.936;4.328;2022-12-18T00:48:50;80.70;;;31.80;;
25715;SDS011;13573;50.936;4.328;2022-12-18T00:51:18;86.83;;;32.47;;
25715;SDS011;13573;50.936;4.328;2022-12-18T00:53:44;76.37;;;30.63;;
25715;SDS011;13573;50.936;4.328;2022-12-18T00:56:11;84.13;;;32.87;;
25715;SDS011;13573;50.936;4.328;2022-12-18T00:58:37;69.87;;;29.27;;
25715;SDS011;13573;50.936;4.328;2022-12-18T01:01:04;75.70;;;30.13;;
25715;SDS011;13573;50.936;4.328;2022-12-18T01:03:32;78.00;;;29.97;;
25715;SDS011;13573;50.936;4.328;2022-12-18T01:05:58;67.17;;;28.80;;
25715;SDS011;13573;50.936;4.328;2022-12-18T01:08:25;78.60;;;30.63;;
25715;SDS011;13573;50.936;4.328;2022-12-18T01:10:51;69.60;;;28.47;;
25715;SDS011;13573;50.936;4.328;2022-12-18T01:13:19;75.30;;;29.73;;
25715;SDS011;13573;50.936;4.328;2022-12-18T01:15:48;80.53;;;30.33;;
25715;SDS011;13573;50.936;4.328;2022-12-18T01:18:15;76.90;;;29.10;;
25715;SDS011;13573;50.936;4.328;2022-12-18T01:20:42;76.57;;;30.17;;
25715;SDS011;13573;50.936;4.328;2022-12-18T01:23:08;74.03;;;27.77;;
25715;SDS011;13573;50.936;4.328;2022-12-18T01:25:35;74.87;;;27.63;;
25715;SDS011;13573;50.936;4.328;2022-12-18T01:28:03;72.27;;;26.90;;
25715;SDS011;13573;50.936;4.328;2022-12-18T01:30:29;70.47;;;28.30;;
25715;SDS011;13573;50.936;4.328;2022-12-18T01:32:56;78.03;;;28.57;;
25715;SDS011;13573;50.936;4.328;2022-12-18T01:35:23;81.03;;;29.83;;
25715;SDS011;13573;50.936;4.328;2022-12-18T01:37:53;68.50;;;27.27;;
25715;SDS011;13573;50.936;4.328;2022-12-18T01:40:18;68.13;;;28.40;;
25715;SDS011;13573;50.936;4.328;2022-12-18T01:42:49;65.77;;;27.83;;
25715;SDS011;13573;50.936;4.328;2022-12-18T01:45:21;68.10;;;27.50;;
25715;SDS011;13573;50.936;4.328;2022-12-18T01:47:52;77.03;;;29.77;;
25715;SDS011;13573;50.936;4.328;2022-12-18T01:50:20;77.30;;;29.50;;
25715;SDS011;13573;50.936;4.328;2022-12-18T01:52:52;81.10;;;30.73;;
25715;SDS011;13573;50.936;4.328;2022-12-18T01:55:22;74.10;;;30.10;;
25715;SDS011;13573;50.936;4.328;2022-12-18T01:57:49;78.40;;;30.60;;
25715;SDS011;13573;50.936;4.328;2022-12-18T02:00:18;81.00;;;32.10;;
25715;SDS011;13573;50.936;4.328;2022-12-18T02:02:47;80.43;;;31.17;;
25715;SDS011;13573;50.936;4.328;2022-12-18T02:05:16;80.57;;;29.47;;
25715;SDS011;13573;50.936;4.328;2022-12-18T02:07:52;73.17;;;29.73;;
25715;SDS011;13573;50.936;4.328;2022-12-18T02:10:24;80.40;;;29.60;;
25715;SDS011;13573;50.936;4.328;2022-12-18T02:15:51;85.30;;;29.20;;
25715;SDS011;13573;50.936;4.328;2022-12-18T02:18:38;72.23;;;30.17;;
25715;SDS011;13573;50.936;4.328;2022-12-18T02:21:12;76.47;;;30.73;;
25715;SDS011;13573;50.936;4.328;2022-12-18T02:23:41;81.70;;;30.50;;
25715;SDS011;13573;50.936;4.328;2022-12-18T02:26:08;72.77;;;30.30;;
25715;SDS011;13573;50.936;4.328;2022-12-18T02:28:41;83.93;;;36.10;;
25715;SDS011;13573;50.936;4.328;2022-12-18T02:31:11;88.67;;;34.97;;
25715;SDS011;13573;50.936;4.328;2022-12-18T02:33:42;85.17;;;35.27;;
25715;SDS011;13573;50.936;4.328;2022-12-18T02:36:10;84.97;;;36.53;;
25715;SDS011;13573;50.936;4.328;2022-12-18T02:38:37;99.87;;;39.00;;
25715;SDS011;13573;50.936;4.328;2022-12-18T02:41:06;87.33;;;35.87;;
25715;SDS011;13573;50.936;4.328;2022-12-18T02:43:32;88.70;;;34.77;;
25715;SDS011;13573;50.936;4.328;2022-12-18T02:45:59;83.90;;;33.37;;
25715;SDS011;13573;50.936;4.328;2022-12-18T02:48:29;97.80;;;35.43;;
25715;SDS011;13573;50.936;4.328;2022-12-18T02:53:52;83.43;;;32.27;;
25715;SDS011;13573;50.936;4.328;2022-12-18T02:56:24;90.97;;;33.93;;
25715;SDS011;13573;50.936;4.328;2022-12-18T02:59:09;79.53;;;31.70;;
25715;SDS011;13573;50.936;4.328;2022-12-18T03:01:40;79.10;;;30.20;;
25715;SDS011;13573;50.936;4.328;2022-12-18T03:04:23;72.60;;;28.70;;
25715;SDS011;13573;50.936;4.328;2022-12-18T03:06:54;74.53;;;28.03;;
25715;SDS011;13573;50.936;4.328;2022-12-18T03:09:26;72.23;;;26.83;;
25715;SDS011;13573;50.936;4.328;2022-12-18T03:11:54;68.53;;;27.07;;
25715;SDS011;13573;50.936;4.328;2022-12-18T03:14:29;69.03;;;27.47;;
25715;SDS011;13573;50.936;4.328;2022-12-18T03:16:57;69.20;;;28.03;;
25715;SDS011;13573;50.936;4.328;2022-12-18T03:19:26;71.97;;;27.53;;
25715;SDS011;13573;50.936;4.328;2022-12-18T03:21:54;67.40;;;24.70;;
25715;SDS011;13573;50.936;4.328;2022-12-18T03:24:22;70.73;;;28.83;;
25715;SDS011;13573;50.936;4.328;2022-12-18T03:26:53;68.87;;;26.83;;
25715;SDS011;13573;50.936;4.328;2022-12-18T03:29:26;59.00;;;25.03;;
25715;SDS011;13573;50.936;4.328;2022-12-18T03:31:57;56.63;;;24.20;;
25715;SDS011;13573;50.936;4.328;2022-12-18T03:34:26;66.50;;;26.73;;
25715;SDS011;13573;50.936;4.328;2022-12-18T03:36:55;57.27;;;23.70;;
25715;SDS011;13573;50.936;4.328;2022-12-18T03:39:23;57.20;;;23.83;;
25715;SDS011;13573;50.936;4.328;2022-12-18T03:41:52;65.70;;;24.97;;
25715;SDS011;13573;50.936;4.328;2022-12-18T03:44:26;56.07;;;22.03;;
25715;SDS011;13573;50.936;4.328;2022-12-18T03:47:07;54.83;;;22.40;;
25715;SDS011;13573;50.936;4.328;2022-12-18T03:49:46;59.70;;;23.67;;
25715;SDS011;13573;50.936;4.328;2022-12-18T03:52:34;55.50;;;22.53;;
25715;SDS011;13573;50.936;4.328;2022-12-18T03:55:00;57.77;;;22.70;;
25715;SDS011;13573;50.936;4.328;2022-12-18T03:57:28;49.03;;;21.47;;
25715;SDS011;13573;50.936;4.328;2022-12-18T03:59:57;57.00;;;22.63;;
25715;SDS011;13573;50.936;4.328;2022-12-18T04:02:25;49.70;;;21.00;;
25715;SDS011;13573;50.936;4.328;2022-12-18T04:04:55;48.70;;;21.63;;
25715;SDS011;13573;50.936;4.328;2022-12-18T04:07:24;56.40;;;22.70;;
25715;SDS011;13573;50.936;4.328;2022-12-18T04:09:51;54.53;;;23.50;;
25715;SDS011;13573;50.936;4.328;2022-12-18T04:12:20;59.13;;;23.60;;
25715;SDS011;13573;50.936;4.328;2022-12-18T04:14:47;56.73;;;22.33;;
25715;SDS011;13573;50.936;4.328;2022-12-18T04:17:13;53.77;;;22.40;;
25715;SDS011;13573;50.936;4.328;2022-12-18T04:19:40;49.60;;;21.47;;
25715;SDS011;13573;50.936;4.328;2022-12-18T04:22:08;60.73;;;23.63;;
25715;SDS011;13573;50.936;4.328;2022-12-18T04:24:36;58.23;;;24.27;;
25715;SDS011;13573;50.936;4.328;2022-12-18T04:27:03;60.90;;;23.67;;
25715;SDS011;13573;50.936;4.328;2022-12-18T04:29:30;55.10;;;21.70;;
25715;SDS011;13573;50.936;4.328;2022-12-18T04:31:56;52.87;;;21.50;;
25715;SDS011;13573;50.936;4.328;2022-12-18T04:34:23;55.93;;;22.57;;
25715;SDS011;13573;50.936;4.328;2022-12-18T04:36:49;50.57;;;20.83;;
25715;SDS011;13573;50.936;4.328;2022-12-18T04:39:17;50.40;;;21.13;;
25715;SDS011;13573;50.936;4.328;2022-12-18T04:41:44;47.70;;;20.30;;
25715;SDS011;13573;50.936;4.328;2022-12-18T04:44:10;48.80;;;20.90;;
25715;SDS011;13573;50.936;4.328;2022-12-18T04:46:38;47.47;;;20.10;;
25715;SDS011;13573;50.936;4.328;2022-12-18T04:49:04;45.00;;;19.53;;
25715;SDS011;13573;50.936;4.328;2022-12-18T04:51:30;45.67;;;20.53;;
25715;SDS011;13573;50.936;4.328;2022-12-18T04:53:58;51.07;;;20.67;;
25715;SDS011;13573;50.936;4.328;2022-12-18T04:56:24;51.03;;;21.37;;
25715;SDS011;13573;50.936;4.328;2022-12-18T04:58:51;46.73;;;19.03;;
25715;SDS011;13573;50.936;4.328;2022-12-18T05:01:18;46.43;;;19.67;;
25715;SDS011;13573;50.936;4.328;2022-12-18T05:03:44;47.47;;;19.87;;
25715;SDS011;13573;50.936;4.328;2022-12-18T05:06:11;45.03;;;18.50;;
25715;SDS011;13573;50.936;4.328;2022-12-18T05:08:38;46.37;;;20.23;;
25715;SDS011;13573;50.936;4.328;2022-12-18T05:11:06;44.80;;;18.83;;
25715;SDS011;13573;50.936;4.328;2022-12-18T05:13:35;40.27;;;18.73;;
25715;SDS011;13573;50.936;4.328;2022-12-18T05:16:04;48.33;;;19.63;;
25715;SDS011;13573;50.936;4.328;2022-12-18T05:18:30;45.00;;;18.20;;
25715;SDS011;13573;50.936;4.328;2022-12-18T05:20:57;50.50;;;20.67;;
25715;SDS011;13573;50.936;4.328;2022-12-18T05:23:24;46.93;;;20.17;;
25715;SDS011;13573;50.936;4.328;2022-12-18T05:25:52;46.97;;;19.60;;
25715;SDS011;13573;50.936;4.328;2022-12-18T05:28:22;46.23;;;20.07;;
25715;SDS011;13573;50.936;4.328;2022-12-18T05:30:49;41.60;;;18.17;;
25715;SDS011;13573;50.936;4.328;2022-12-18T05:33:19;42.70;;;18.30;;
25715;SDS011;13573;50.936;4.328;2022-12-18T05:35:53;48.03;;;19.47;;
25715;SDS011;13573;50.936;4.328;2022-12-18T05:38:20;44.47;;;19.23;;
25715;SDS011;13573;50.936;4.328;2022-12-18T05:40:49;48.40;;;19.43;;
25715;SDS011;13573;50.936;4.328;2022-12-18T05:43:16;45.93;;;19.50;;
25715;SDS011;13573;50.936;4.328;2022-12-18T05:45:42;46.53;;;18.30;;
25715;SDS011;13573;50.936;4.328;2022-12-18T05:48:09;47.57;;;19.00;;
25715;SDS011;13573;50.936;4.328;2022-12-18T05:50:37;42.33;;;18.57;;
25715;SDS011;13573;50.936;4.328;2022-12-18T05:53:04;42.87;;;18.43;;
25715;SDS011;13573;50.936;4.328;2022-12-18T05:55:34;41.17;;;18.60;;
25715;SDS011;13573;50.936;4.328;2022-12-18T05:58:01;45.20;;;19.03;;
25715;SDS011;13573;50.936;4.328;2022-12-18T06:00:28;51.83;;;19.73;;
25715;SDS011;13573;50.936;4.328;2022-12-18T06:02:55;46.87;;;20.50;;
25715;SDS011;13573;50.936;4.328;2022-12-18T06:05:21;38.27;;;17.57;;
25715;SDS011;13573;50.936;4.328;2022-12-18T06:07:47;42.37;;;17.60;;
25715;SDS011;13573;50.936;4.328;2022-12-18T06:10:15;39.23;;;16.87;;
25715;SDS011;13573;50.936;4.328;2022-12-18T06:12:41;41.90;;;17.70;;
25715;SDS011;13573;50.936;4.328;2022-12-18T06:15:08;44.50;;;17.87;;
25715;SDS011;13573;50.936;4.328;2022-12-18T06:17:34;37.40;;;16.93;;
25715;SDS011;13573;50.936;4.328;2022-12-18T06:20:03;50.23;;;19.87;;
25715;SDS011;13573;50.936;4.328;2022-12-18T06:22:31;50.50;;;20.70;;
25715;SDS011;13573;50.936;4.328;2022-12-18T06:24:57;45.47;;;19.97;;
25715;SDS011;13573;50.936;4.328;2022-12-18T06:27:25;46.53;;;18.03;;
25715;SDS011;13573;50.936;4.328;2022-12-18T06:29:51;41.97;;;15.80;;
25715;SDS011;13573;50.936;4.328;2022-12-18T06:32:18;37.43;;;16.60;;
25715;SDS011;13573;50.936;4.328;2022-12-18T06:34:45;34.93;;;15.90;;
25715;SDS011;13573;50.936;4.328;2022-12-18T06:37:11;34.13;;;15.50;;
25715;SDS011;13573;50.936;4.328;2022-12-18T06:39:38;33.97;;;14.83;;
25715;SDS011;13573;50.936;4.328;2022-12-18T06:42:05;35.47;;;15.53;;
25715;SDS011;13573;50.936;4.328;2022-12-18T06:44:31;33.87;;;15.40;;
25715;SDS011;13573;50.936;4.328;2022-12-18T06:46:58;38.17;;;15.80;;
25715;SDS011;13573;50.936;4.328;2022-12-18T06:49:25;37.13;;;16.20;;
25715;SDS011;13573;50.936;4.328;2022-12-18T06:51:52;39.93;;;17.57;;
25715;SDS011;13573;50.936;4.328;2022-12-18T06:54:18;41.20;;;18.23;;
25715;SDS011;13573;50.936;4.328;2022-12-18T06:56:46;34.87;;;15.87;;
25715;SDS011;13573;50.936;4.328;2022-12-18T06:59:13;42.13;;;16.63;;
25715;SDS011;13573;50.936;4.328;2022-12-18T07:01:40;40.53;;;17.33;;
25715;SDS011;13573;50.936;4.328;2022-12-18T07:04:06;41.67;;;17.27;;
25715;SDS011;13573;50.936;4.328;2022-12-18T07:06:33;36.30;;;16.63;;
25715;SDS011;13573;50.936;4.328;2022-12-18T07:09:00;36.70;;;16.23;;
25715;SDS011;13573;50.936;4.328;2022-12-18T07:11:26;39.63;;;15.40;;
25715;SDS011;13573;50.936;4.328;2022-12-18T07:13:54;30.50;;;13.30;;
25715;SDS011;13573;50.936;4.328;2022-12-18T07:16:20;29.47;;;13.47;;
25715;SDS011;13573;50.936;4.328;2022-12-18T07:18:47;35.50;;;15.37;;
25715;SDS011;13573;50.936;4.328;2022-12-18T07:21:15;37.93;;;16.03;;
25715;SDS011;13573;50.936;4.328;2022-12-18T07:23:44;36.20;;;14.97;;
25715;SDS011;13573;50.936;4.328;2022-12-18T07:26:12;33.47;;;15.10;;
25715;SDS011;13573;50.936;4.328;2022-12-18T07:28:40;37.80;;;16.17;;
25715;SDS011;13573;50.936;4.328;2022-12-18T07:31:09;33.07;;;14.80;;
25715;SDS011;13573;50.936;4.328;2022-12-18T07:33:36;35.10;;;14.87;;
25715;SDS011;13573;50.936;4.328;2022-12-18T07:36:04;32.80;;;14.70;;
25715;SDS011;13573;50.936;4.328;2022-12-18T07:38:31;34.00;;;14.97;;
25715;SDS011;13573;50.936;4.328;2022-12-18T07:41:07;32.57;;;14.07;;
25715;SDS011;13573;50.936;4.328;2022-12-18T07:43:33;35.67;;;14.80;;
25715;SDS011;13573;50.936;4.328;2022-12-18T07:46:01;34.70;;;13.40;;
25715;SDS011;13573;50.936;4.328;2022-12-18T07:48:28;27.27;;;12.80;;
25715;SDS011;13573;50.936;4.328;2022-12-18T07:50:59;33.50;;;14.13;;
25715;SDS011;13573;50.936;4.328;2022-12-18T07:53:27;28.10;;;13.30;;
25715;SDS011;13573;50.936;4.328;2022-12-18T07:55:56;30.23;;;14.33;;
25715;SDS011;13573;50.936;4.328;2022-12-18T07:58:23;37.07;;;13.90;;
25715;SDS011;13573;50.936;4.328;2022-12-18T08:00:50;35.27;;;13.77;;
25715;SDS011;13573;50.936;4.328;2022-12-18T08:03:18;32.57;;;14.37;;
25715;SDS011;13573;50.936;4.328;2022-12-18T08:05:45;27.17;;;12.80;;
25715;SDS011;13573;50.936;4.328;2022-12-18T08:08:12;35.73;;;14.90;;
25715;SDS011;13573;50.936;4.328;2022-12-18T08:10:38;35.07;;;15.37;;
25715;SDS011;13573;50.936;4.328;2022-12-18T08:13:05;35.27;;;15.53;;
25715;SDS011;13573;50.936;4.328;2022-12-18T08:15:32;37.73;;;16.27;;
25715;SDS011;13573;50.936;4.328;2022-12-18T08:17:59;37.97;;;16.80;;
25715;SDS011;13573;50.936;4.328;2022-12-18T08:20:25;37.17;;;15.50;;
25715;SDS011;13573;50.936;4.328;2022-12-18T08:22:51;34.20;;;15.90;;
25715;SDS011;13573;50.936;4.328;2022-12-18T08:25:19;39.97;;;16.87;;
25715;SDS011;13573;50.936;4.328;2022-12-18T08:27:45;36.87;;;16.37;;
25715;SDS011;13573;50.936;4.328;2022-12-18T08:30:12;33.27;;;15.60;;
25715;SDS011;13573;50.936;4.328;2022-12-18T08:32:39;31.20;;;14.97;;
25715;SDS011;13573;50.936;4.328;2022-12-18T08:35:05;26.83;;;13.27;;
25715;SDS011;13573;50.936;4.328;2022-12-18T08:37:33;28.87;;;13.20;;
25715;SDS011;13573;50.936;4.328;2022-12-18T08:40:00;28.93;;;12.50;;
25715;SDS011;13573;50.936;4.328;2022-12-18T08:42:27;26.03;;;12.53;;
25715;SDS011;13573;50.936;4.328;2022-12-18T08:44:59;30.87;;;12.17;;
25715;SDS011;13573;50.936;4.328;2022-12-18T08:47:26;20.97;;;11.10;;
25715;SDS011;13573;50.936;4.328;2022-12-18T08:49:53;24.80;;;12.03;;
25715;SDS011;13573;50.936;4.328;2022-12-18T08:52:20;24.57;;;11.37;;
25715;SDS011;13573;50.936;4.328;2022-12-18T08:54:46;20.90;;;10.33;;
25715;SDS011;13573;50.936;4.328;2022-12-18T08:57:13;24.57;;;11.37;;
25715;SDS011;13573;50.936;4.328;2022-12-18T08:59:39;27.43;;;10.80;;
25715;SDS011;13573;50.936;4.328;2022-12-18T09:02:07;21.77;;;11.83;;
25715;SDS011;13573;50.936;4.328;2022-12-18T09:04:36;21.10;;;10.30;;
25715;SDS011;13573;50.936;4.328;2022-12-18T09:07:03;20.63;;;9.93;;
25715;SDS011;13573;50.936;4.328;2022-12-18T09:09:30;22.17;;;11.10;;
25715;SDS011;13573;50.936;4.328;2022-12-18T09:11:56;21.43;;;11.30;;
25715;SDS011;13573;50.936;4.328;2022-12-18T09:14:23;21.03;;;10.50;;
25715;SDS011;13573;50.936;4.328;2022-12-18T09:16:50;24.77;;;11.07;;
25715;SDS011;13573;50.936;4.328;2022-12-18T09:19:17;28.53;;;12.13;;
25715;SDS011;13573;50.936;4.328;2022-12-18T09:21:43;27.93;;;13.40;;
25715;SDS011;13573;50.936;4.328;2022-12-18T09:24:11;25.03;;;11.93;;
25715;SDS011;13573;50.936;4.328;2022-12-18T09:26:39;25.03;;;11.80;;
25715;SDS011;13573;50.936;4.328;2022-12-18T09:29:06;26.63;;;12.87;;
25715;SDS011;13573;50.936;4.328;2022-12-18T09:31:35;24.57;;;12.30;;
25715;SDS011;13573;50.936;4.328;2022-12-18T09:34:01;22.17;;;11.13;;
25715;SDS011;13573;50.936;4.328;2022-12-18T09:36:28;23.53;;;10.80;;
25715;SDS011;13573;50.936;4.328;2022-12-18T09:38:55;23.17;;;11.80;;
25715;SDS011;13573;50.936;4.328;2022-12-18T09:41:33;26.50;;;13.17;;
25715;SDS011;13573;50.936;4.328;2022-12-18T09:44:03;27.87;;;12.67;;
25715;SDS011;13573;50.936;4.328;2022-12-18T09:46:30;25.27;;;12.00;;
25715;SDS011;13573;50.936;4.328;2022-12-18T09:48:59;19.90;;;10.27;;
25715;SDS011;13573;50.936;4.328;2022-12-18T09:51:32;25.27;;;10.87;;
25715;SDS011;13573;50.936;4.328;2022-12-18T09:54:03;20.30;;;10.60;;
25715;SDS011;13573;50.936;4.328;2022-12-18T09:56:31;24.03;;;11.50;;
25715;SDS011;13573;50.936;4.328;2022-12-18T09:59:01;23.40;;;11.57;;
25715;SDS011;13573;50.936;4.328;2022-12-18T10:01:31;20.07;;;10.47;;
25715;SDS011;13573;50.936;4.328;2022-12-18T10:03:58;22.43;;;11.60;;
25715;SDS011;13573;50.936;4.328;2022-12-18T10:06:28;24.57;;;11.77;;
25715;SDS011;13573;50.936;4.328;2022-12-18T10:09:01;28.57;;;13.10;;
25715;SDS011;13573;50.936;4.328;2022-12-18T10:14:04;24.20;;;11.07;;
25715;SDS011;13573;50.936;4.328;2022-12-18T10:16:33;22.53;;;11.23;;
25715;SDS011;13573;50.936;4.328;2022-12-18T10:19:03;27.23;;;11.87;;
25715;SDS011;13573;50.936;4.328;2022-12-18T10:21:32;22.77;;;11.17;;
25715;SDS011;13573;50.936;4.328;2022-12-18T10:24:47;27.73;;;12.57;;
25715;SDS011;13573;50.936;4.328;2022-12-18T10:26:58;25.07;;;11.83;;
25715;SDS011;13573;50.936;4.328;2022-12-18T10:29:27;28.77;;;12.73;;
25715;SDS011;13573;50.936;4.328;2022-12-18T10:31:54;26.13;;;12.90;;
25715;SDS011;13573;50.936;4.328;2022-12-18T10:34:20;27.60;;;13.03;;
25715;SDS011;13573;50.936;4.328;2022-12-18T10:36:47;34.33;;;15.20;;
25715;SDS011;13573;50.936;4.328;2022-12-18T10:39:15;34.47;;;15.73;;
25715;SDS011;13573;50.936;4.328;2022-12-18T10:41:42;28.97;;;13.67;;
25715;SDS011;13573;50.936;4.328;2022-12-18T10:44:24;26.50;;;12.93;;
25715;SDS011;13573;50.936;4.328;2022-12-18T10:46:54;34.13;;;14.97;;
25715;SDS011;13573;50.936;4.328;2022-12-18T10:49:25;36.97;;;17.30;;
25715;SDS011;13573;50.936;4.328;2022-12-18T10:54:26;37.57;;;17.03;;
25715;SDS011;13573;50.936;4.328;2022-12-18T10:57:09;32.23;;;14.80;;
25715;SDS011;13573;50.936;4.328;2022-12-18T10:59:30;26.97;;;12.93;;
25715;SDS011;13573;50.936;4.328;2022-12-18T11:01:58;29.20;;;12.87;;
25715;SDS011;13573;50.936;4.328;2022-12-18T11:04:26;26.57;;;13.20;;
25715;SDS011;13573;50.936;4.328;2022-12-18T11:06:54;26.87;;;12.93;;
25715;SDS011;13573;50.936;4.328;2022-12-18T11:09:37;24.73;;;11.87;;
25715;SDS011;13573;50.936;4.328;2022-12-18T11:12:21;25.37;;;12.60;;
25715;SDS011;13573;50.936;4.328;2022-12-18T11:14:49;24.50;;;12.60;;
25715;SDS011;13573;50.936;4.328;2022-12-18T11:17:19;24.37;;;12.57;;
25715;SDS011;13573;50.936;4.328;2022-12-18T11:19:53;22.77;;;12.53;;
25715;SDS011;13573;50.936;4.328;2022-12-18T11:22:22;27.10;;;13.27;;
25715;SDS011;13573;50.936;4.328;2022-12-18T11:27:55;26.47;;;13.53;;
25715;SDS011;13573;50.936;4.328;2022-12-18T11:30:30;26.93;;;13.57;;
25715;SDS011;13573;50.936;4.328;2022-12-18T11:33:04;27.97;;;13.63;;
25715;SDS011;13573;50.936;4.328;2022-12-18T11:35:47;27.50;;;13.40;;
25715;SDS011;13573;50.936;4.328;2022-12-18T11:38:22;37.13;;;17.47;;
25715;SDS011;13573;50.936;4.328;2022-12-18T11:40:51;32.27;;;14.93;;
25715;SDS011;13573;50.936;4.328;2022-12-18T11:43:26;27.67;;;14.20;;
25715;SDS011;13573;50.936;4.328;2022-12-18T11:45:54;29.70;;;15.83;;
25715;SDS011;13573;50.936;4.328;2022-12-18T11:48:28;30.77;;;15.60;;
25715;SDS011;13573;50.936;4.328;2022-12-18T11:50:59;31.23;;;15.33;;
25715;SDS011;13573;50.936;4.328;2022-12-18T11:53:28;34.27;;;16.87;;
25715;SDS011;13573;50.936;4.328;2022-12-18T11:56:05;33.57;;;16.20;;
25715;SDS011;13573;50.936;4.328;2022-12-18T12:03:48;31.57;;;17.20;;
25715;SDS011;13573;50.936;4.328;2022-12-18T12:06:18;43.73;;;22.40;;
25715;SDS011;13573;50.936;4.328;2022-12-18T12:11:41;25.67;;;14.03;;
25715;SDS011;13573;50.936;4.328;2022-12-18T12:14:44;29.70;;;14.17;;
25715;SDS011;13573;50.936;4.328;2022-12-18T12:16:57;31.63;;;14.67;;
25715;SDS011;13573;50.936;4.328;2022-12-18T12:19:35;27.00;;;14.13;;
25715;SDS011;13573;50.936;4.328;2022-12-18T12:22:10;30.17;;;13.60;;
25715;SDS011;13573;50.936;4.328;2022-12-18T12:24:39;26.67;;;13.80;;
25715;SDS011;13573;50.936;4.328;2022-12-18T12:29:50;28.13;;;14.17;;
25715;SDS011;13573;50.936;4.328;2022-12-18T12:35:22;27.67;;;13.20;;
25715;SDS011;13573;50.936;4.328;2022-12-18T12:37:54;26.87;;;13.70;;
25715;SDS011;13573;50.936;4.328;2022-12-18T12:40:26;30.73;;;14.40;;
25715;SDS011;13573;50.936;4.328;2022-12-18T12:42:54;26.57;;;13.77;;
25715;SDS011;13573;50.936;4.328;2022-12-18T12:45:33;29.17;;;13.10;;
25715;SDS011;13573;50.936;4.328;2022-12-18T12:48:01;27.90;;;13.77;;
25715;SDS011;13573;50.936;4.328;2022-12-18T12:50:31;29.57;;;14.07;;
25715;SDS011;13573;50.936;4.328;2022-12-18T12:52:59;31.50;;;13.53;;
25715;SDS011;13573;50.936;4.328;2022-12-18T12:55:29;30.17;;;13.20;;
25715;SDS011;13573;50.936;4.328;2022-12-18T12:58:05;28.53;;;14.23;;
25715;SDS011;13573;50.936;4.328;2022-12-18T13:00:31;29.83;;;14.30;;
25715;SDS011;13573;50.936;4.328;2022-12-18T13:03:08;27.47;;;12.83;;
25715;SDS011;13573;50.936;4.328;2022-12-18T13:05:46;31.27;;;14.23;;
25715;SDS011;13573;50.936;4.328;2022-12-18T13:08:23;28.33;;;13.07;;
25715;SDS011;13573;50.936;4.328;2022-12-18T13:10:49;29.33;;;14.73;;
25715;SDS011;13573;50.936;4.328;2022-12-18T13:13:18;27.33;;;13.43;;
25715;SDS011;13573;50.936;4.328;2022-12-18T13:15:47;27.00;;;13.37;;
25715;SDS011;13573;50.936;4.328;2022-12-18T13:18:16;26.63;;;13.00;;
25715;SDS011;13573;50.936;4.328;2022-12-18T13:20:47;30.07;;;14.27;;
25715;SDS011;13573;50.936;4.328;2022-12-18T13:25:56;33.80;;;15.10;;
25715;SDS011;13573;50.936;4.328;2022-12-18T13:30:57;31.00;;;15.40;;
25715;SDS011;13573;50.936;4.328;2022-12-18T13:33:36;30.53;;;14.43;;
25715;SDS011;13573;50.936;4.328;2022-12-18T13:38:44;28.43;;;14.07;;
25715;SDS011;13573;50.936;4.328;2022-12-18T13:41:22;28.23;;;14.57;;
25715;SDS011;13573;50.936;4.328;2022-12-18T13:43:52;33.10;;;14.73;;
25715;SDS011;13573;50.936;4.328;2022-12-18T13:49:20;36.53;;;16.57;;
25715;SDS011;13573;50.936;4.328;2022-12-18T13:51:51;34.73;;;16.87;;
25715;SDS011;13573;50.936;4.328;2022-12-18T13:57:04;34.47;;;17.03;;
25715;SDS011;13573;50.936;4.328;2022-12-18T13:59:33;36.40;;;17.70;;
25715;SDS011;13573;50.936;4.328;2022-12-18T14:02:07;36.27;;;16.57;;
25715;SDS011;13573;50.936;4.328;2022-12-18T14:04:32;40.30;;;18.27;;
25715;SDS011;13573;50.936;4.328;2022-12-18T14:07:05;37.30;;;17.87;;
25715;SDS011;13573;50.936;4.328;2022-12-18T14:09:35;39.37;;;17.70;;
25715;SDS011;13573;50.936;4.328;2022-12-18T14:12:05;37.43;;;17.57;;
25715;SDS011;13573;50.936;4.328;2022-12-18T14:14:40;36.93;;;17.70;;
25715;SDS011;13573;50.936;4.328;2022-12-18T14:17:10;38.67;;;17.77;;
25715;SDS011;13573;50.936;4.328;2022-12-18T14:19:36;38.20;;;18.10;;
25715;SDS011;13573;50.936;4.328;2022-12-18T14:22:09;42.63;;;19.07;;
25715;SDS011;13573;50.936;4.328;2022-12-18T14:24:34;39.40;;;17.07;;
25715;SDS011;13573;50.936;4.328;2022-12-18T14:27:12;37.27;;;17.97;;
25715;SDS011;13573;50.936;4.328;2022-12-18T14:29:35;40.83;;;18.13;;
25715;SDS011;13573;50.936;4.328;2022-12-18T14:32:11;40.20;;;18.47;;
25715;SDS011;13573;50.936;4.328;2022-12-18T14:34:41;43.00;;;18.73;;
25715;SDS011;13573;50.936;4.328;2022-12-18T14:37:09;41.93;;;19.23;;
25715;SDS011;13573;50.936;4.328;2022-12-18T14:39:36;39.33;;;19.03;;
25715;SDS011;13573;50.936;4.328;2022-12-18T14:42:03;44.97;;;19.57;;
25715;SDS011;13573;50.936;4.328;2022-12-18T14:44:29;42.53;;;19.23;;
25715;SDS011;13573;50.936;4.328;2022-12-18T14:46:56;42.40;;;19.13;;
25715;SDS011;13573;50.936;4.328;2022-12-18T14:49:29;40.63;;;18.77;;
25715;SDS011;13573;50.936;4.328;2022-12-18T14:51:56;39.10;;;18.70;;
25715;SDS011;13573;50.936;4.328;2022-12-18T14:54:24;42.90;;;19.00;;
25715;SDS011;13573;50.936;4.328;2022-12-18T14:59:23;41.33;;;20.43;;
25715;SDS011;13573;50.936;4.328;2022-12-18T15:01:59;45.50;;;21.30;;
25715;SDS011;13573;50.936;4.328;2022-12-18T15:04:35;45.40;;;19.90;;
25715;SDS011;13573;50.936;4.328;2022-12-18T15:07:21;49.40;;;19.87;;
25715;SDS011;13573;50.936;4.328;2022-12-18T15:12:27;39.83;;;18.40;;
25715;SDS011;13573;50.936;4.328;2022-12-18T15:14:57;44.23;;;19.80;;
25715;SDS011;13573;50.936;4.328;2022-12-18T15:17:23;42.47;;;19.93;;
25715;SDS011;13573;50.936;4.328;2022-12-18T15:19:52;39.03;;;19.77;;